Time;durP1;ratioP1;P1;durP2;ratioP2;P2;SDS_P1;SDS_P2;PMS_P1;PMS_P2;Temp;Humidity;BMP_temperature;BMP_pressure;BME280_temperature;BME280_humidity;BME280_pressure;Samples;Min_cycle;Max_cycle;Signal;HPM_P1;HPM_P2
2024/04/23 00:00:26;;;;;;;;;;;;;;;20.23;45.60;101710.31;2219457;26;6072;-67
2024/04/23 00:01:28;;;;;;;;;;;;;;;20.23;45.51;101721.84;2217588;26;2283;-67
2024/04/23 00:02:29;;;;;;;;;;;;;;;20.23;45.14;101718.97;2215868;26;2309;-66
2024/04/23 00:03:31;;;;;;;;;;;;;;;20.23;45.20;101721.84;2220952;26;2249;-68
2024/04/23 00:04:32;;;;;;;;;;;;;;;20.21;45.50;101718.84;2219130;26;2149;-67
2024/04/23 00:05:34;;;;;;;;;;;;;;;20.22;45.46;101717.44;2222483;26;2326;-67
2024/04/23 00:06:35;;;;;;;;;;;;;;;20.21;45.42;101715.97;2216369;26;2275;-67
2024/04/23 00:07:37;;;;;;;;;;;;;;;20.20;45.81;101714.44;2218691;26;2275;-67
2024/04/23 00:08:39;;;;;;;;;;;;;;;20.21;45.54;101721.72;2219801;26;2163;-67
2024/04/23 00:09:40;;;;;;;;;;;;;;;20.20;45.77;101714.44;2220290;26;2291;-67
2024/04/23 00:10:41;;;;;;;;;;;;;;;20.20;45.01;101720.19;2219015;26;2329;-66
2024/04/23 00:11:43;;;;;;;;;;;;;;;20.19;45.31;101716.56;2219991;26;2362;-67
2024/04/23 00:12:45;;;;;;;;;;;;;;;20.19;45.74;101712.94;2220205;26;2164;-67
2024/04/23 00:13:46;;;;;;;;;;;;;;;20.19;45.11;101718.72;2218246;26;2266;-66
2024/04/23 00:14:47;;;;;;;;;;;;;;;20.19;44.95;101715.84;2219561;26;2456;-66
2024/04/23 00:15:49;;;;;;;;;;;;;;;20.19;45.19;101712.94;2216477;26;2256;-67
2024/04/23 00:17:00;;;;;;;;;;;;;;;20.19;45.17;101710.81;2212401;26;2270;-67
2024/04/23 00:18:01;;;;;;;;;;;;;;;20.19;45.44;101712.94;2213149;26;2263;-67
2024/04/23 00:19:03;;;;;;;;;;;;;;;20.18;45.71;101706.47;2219183;26;2244;-67
2024/04/23 00:20:06;;;;;;;;;;;;;;;20.18;45.36;101715.09;2221770;26;2064;-67
2024/04/23 00:21:07;;;;;;;;;;;;;;;20.17;45.04;101712.81;2217555;26;2201;-65
2024/04/23 00:22:09;;;;;;;;;;;;;;;20.18;45.45;101714.31;2217764;26;2036;-67
2024/04/23 00:23:12;;;;;;;;;;;;;;;20.17;45.65;101707.06;2219649;26;2133;-66
2024/04/23 00:24:14;;;;;;;;;;;;;;;20.16;45.63;101696.94;2216889;26;1950;-68
2024/04/23 00:25:15;;;;;;;;;;;;;;;20.16;45.65;101697.72;2217941;26;2299;-66
2024/04/23 00:26:16;;;;;;;;;;;;;;;20.17;45.65;101698.44;2220737;26;2152;-68
2024/04/23 00:27:18;;;;;;;;;;;;;;;20.16;45.71;101694.06;2219403;26;2256;-67
2024/04/23 00:28:19;;;;;;;;;;;;;;;20.15;45.25;101696.19;2222190;26;2264;-67
2024/04/23 00:29:21;;;;;;;;;;;;;;;20.15;45.47;101695.44;2211624;26;2182;-67
2024/04/23 00:30:22;;;;;;;;;;;;;;;20.15;45.04;101695.44;2220672;26;5812;-67
2024/04/23 00:31:24;;;;;;;;;;;;;;;20.15;45.28;101701.19;2228458;26;2252;-67
2024/04/23 00:32:25;;;;;;;;;;;;;;;20.15;45.59;101689.69;2219925;26;2131;-67
2024/04/23 00:33:27;;;;;;;;;;;;;;;20.13;45.84;101687.44;2230355;26;2112;-67
2024/04/23 00:34:28;;;;;;;;;;;;;;;20.14;45.25;101688.22;2221649;26;2397;-67
2024/04/23 00:35:30;;;;;;;;;;;;;;;20.12;45.63;101696.72;2219806;26;2250;-67
2024/04/23 00:36:31;;;;;;;;;;;;;;;20.12;45.48;101688.09;2216876;26;2223;-67
2024/04/23 00:37:33;;;;;;;;;;;;;;;20.12;45.75;101685.94;2219893;26;2443;-66
2024/04/23 00:38:35;;;;;;;;;;;;;;;20.12;45.73;101685.22;2222559;26;2271;-67
2024/04/23 00:39:36;;;;;;;;;;;;;;;20.11;45.75;101692.31;2222089;26;2206;-67
2024/04/23 00:40:38;;;;;;;;;;;;;;;20.11;45.40;101683.69;2223353;26;2484;-66
2024/04/23 00:41:39;;;;;;;;;;;;;;;20.11;45.75;101689.44;2221596;26;2251;-67
2024/04/23 00:42:41;;;;;;;;;;;;;;;20.11;45.76;101677.94;2222316;26;2220;-67
2024/04/23 00:43:42;;;;;;;;;;;;;;;20.09;45.13;101685.09;2217026;26;2341;-67
2024/04/23 00:44:44;;;;;;;;;;;;;;;20.09;45.63;101678.59;2220431;26;1978;-67
2024/04/23 00:45:47;;;;;;;;;;;;;;;20.11;45.83;101677.94;2219410;26;2633;-67
2024/04/23 00:46:50;;;;;;;;;;;;;;;20.09;45.38;101681.47;2222338;26;2111;-66
2024/04/23 00:47:51;;;;;;;;;;;;;;;20.11;45.73;101672.19;2219781;26;2220;-67
2024/04/23 00:48:53;;;;;;;;;;;;;;;20.10;45.53;101671.44;2222775;26;2497;-67
2024/04/23 00:49:54;;;;;;;;;;;;;;;20.11;45.42;101672.19;2221757;26;1923;-67
2024/04/23 00:50:56;;;;;;;;;;;;;;;20.11;45.12;101672.19;2223690;26;2036;-66
2024/04/23 00:51:58;;;;;;;;;;;;;;;20.12;44.99;101671.56;2221489;26;2271;-67
2024/04/23 00:53:00;;;;;;;;;;;;;;;20.14;45.51;101676.72;2220520;26;2117;-67
2024/04/23 00:54:02;;;;;;;;;;;;;;;20.12;45.43;101674.44;2221254;26;2221;-67
2024/04/23 00:55:03;;;;;;;;;;;;;;;20.13;45.55;101675.19;2221590;26;2319;-66
2024/04/23 00:56:05;;;;;;;;;;;;;;;20.14;45.21;101673.84;2221250;26;2181;-67
2024/04/23 00:57:07;;;;;;;;;;;;;;;20.14;45.36;101676.72;2218641;26;2153;-67
2024/04/23 00:58:08;;;;;;;;;;;;;;;20.16;45.50;101676.81;2220074;26;2392;-66
2024/04/23 00:59:11;;;;;;;;;;;;;;;20.15;45.37;101678.19;2217242;26;2158;-66
2024/04/23 01:00:13;;;;;;;;;;;;;;;20.16;45.60;101673.94;2214055;26;5932;-66
2024/04/23 01:01:15;;;;;;;;;;;;;;;20.16;45.38;101680.44;2225062;26;2442;-67
2024/04/23 01:02:16;;;;;;;;;;;;;;;20.17;45.36;101684.06;2219278;26;2236;-67
2024/04/23 01:03:18;;;;;;;;;;;;;;;20.17;45.66;101681.94;2219726;26;2352;-67
2024/04/23 01:04:19;;;;;;;;;;;;;;;20.18;45.26;101679.81;2217130;26;2251;-66
2024/04/23 01:05:21;;;;;;;;;;;;;;;20.18;45.27;101671.19;2214451;26;2162;-67
2024/04/23 01:06:22;;;;;;;;;;;;;;;20.19;45.06;101681.31;2224446;26;2103;-67
2024/04/23 01:07:24;;;;;;;;;;;;;;;20.20;44.85;101679.94;2212605;26;2071;-66
2024/04/23 01:08:25;;;;;;;;;;;;;;;20.19;44.94;101673.44;2217713;26;2291;-66
2024/04/23 01:09:27;;;;;;;;;;;;;;;20.20;44.92;101677.06;2220084;26;2319;-67
2024/04/23 01:10:28;;;;;;;;;;;;;;;20.20;44.87;101674.19;2220950;26;2195;-67
2024/04/23 01:11:30;;;;;;;;;;;;;;;20.20;45.47;101674.19;2218915;26;2342;-66
2024/04/23 01:12:32;;;;;;;;;;;;;;;20.21;45.12;101675.69;2225316;26;2263;-67
2024/04/23 01:13:33;;;;;;;;;;;;;;;20.21;45.22;101664.19;2219841;26;2463;-66
2024/04/23 01:14:36;;;;;;;;;;;;;;;20.20;45.21;101677.06;2222509;26;2012;-67
2024/04/23 01:15:39;;;;;;;;;;;;;;;20.19;44.83;101666.94;2220712;26;2268;-67
2024/04/23 01:16:43;;;;;;;;;;;;;;;20.21;44.76;101675.69;2220522;26;2644;-67
2024/04/23 01:17:46;;;;;;;;;;;;;;;20.20;45.37;101674.19;2220954;26;2244;-66
2024/04/23 01:18:47;;;;;;;;;;;;;;;20.19;45.28;101666.94;2216277;26;2208;-67
2024/04/23 01:19:53;;;;;;;;;;;;;;;20.20;45.59;101668.44;2221520;26;2054;-67
2024/04/23 01:20:55;;;;;;;;;;;;;;;20.20;45.65;101671.31;2222441;26;2310;-66
2024/04/23 01:22:08;;;;;;;;;;;;;;;20.19;45.30;101667.69;2217418;26;2371;-66
2024/04/23 01:23:21;;;;;;;;;;;;;;;20.19;44.79;101667.69;2218361;26;2303;-67
2024/04/23 01:24:35;;;;;;;;;;;;;;;20.18;44.88;101676.94;2221262;26;2071;-66
2024/04/23 01:25:41;;;;;;;;;;;;;;;20.18;45.37;101660.44;2212674;26;2584;-67
2024/04/23 01:26:42;;;;;;;;;;;;;;;20.19;45.19;101666.94;2219626;26;2243;-67
2024/04/23 01:27:44;;;;;;;;;;;;;;;20.18;45.31;101665.44;2215289;26;2188;-66
2024/04/23 01:28:46;;;;;;;;;;;;;;;20.18;45.18;101665.44;2213748;26;2179;-67
2024/04/23 01:29:48;;;;;;;;;;;;;;;20.18;45.51;101668.31;2217103;26;2214;-67
2024/04/23 01:30:50;;;;;;;;;;;;;;;20.18;45.27;101659.66;2214739;26;6855;-67
2024/04/23 01:31:52;;;;;;;;;;;;;;;20.18;45.22;101662.56;2217907;26;2438;-67
2024/04/23 01:32:54;;;;;;;;;;;;;;;20.17;45.17;101656.06;2216816;26;2256;-66
2024/04/23 01:33:55;;;;;;;;;;;;;;;20.17;45.61;101663.94;2218498;26;2256;-68
2024/04/23 01:34:57;;;;;;;;;;;;;;;20.18;45.15;101656.81;2223150;26;2183;-66
2024/04/23 01:36:00;;;;;;;;;;;;;;;20.17;45.41;101661.06;2219308;26;2088;-66
2024/04/23 01:37:03;;;;;;;;;;;;;;;20.17;44.84;101655.31;2222871;26;2221;-66
2024/04/23 01:38:05;;;;;;;;;;;;;;;20.16;45.31;101668.19;2222225;26;2231;-67
2024/04/23 01:39:06;;;;;;;;;;;;;;;20.16;44.93;101662.44;2211670;26;2295;-66
2024/04/23 01:40:09;;;;;;;;;;;;;;;20.17;45.06;101658.19;2221743;26;2099;-66
2024/04/23 01:41:10;;;;;;;;;;;;;;;20.17;45.25;101663.94;2219296;26;2307;-66
2024/04/23 01:42:12;;;;;;;;;;;;;;;20.17;45.62;101663.94;2218736;26;2137;-66
2024/04/23 01:43:14;;;;;;;;;;;;;;;20.18;45.38;101662.56;2222408;26;2263;-66
2024/04/23 01:44:16;;;;;;;;;;;;;;;20.17;45.05;101670.44;2219955;26;2136;-66
2024/04/23 01:45:18;;;;;;;;;;;;;;;20.17;45.62;101661.81;2219307;26;2288;-67
2024/04/23 01:46:20;;;;;;;;;;;;;;;20.18;45.02;101662.56;2218380;26;2440;-68
2024/04/23 01:47:21;;;;;;;;;;;;;;;20.18;45.04;101654.69;2222059;26;2275;-67
2024/04/23 01:48:23;;;;;;;;;;;;;;;20.18;44.95;101663.31;2219335;26;2447;-67
2024/04/23 01:49:25;;;;;;;;;;;;;;;20.18;45.10;101663.31;2219996;26;2263;-68
2024/04/23 01:50:27;;;;;;;;;;;;;;;20.19;44.94;101661.19;2221698;26;2574;-67
2024/04/23 01:51:28;;;;;;;;;;;;;;;20.20;45.39;101669.19;2217759;26;2373;-66
2024/04/23 01:52:29;;;;;;;;;;;;;;;20.19;44.94;101656.19;2216908;26;2132;-67
2024/04/23 01:53:31;;;;;;;;;;;;;;;20.19;44.88;101661.94;2218665;26;2402;-67
2024/04/23 01:54:32;;;;;;;;;;;;;;;20.19;44.68;101661.94;2218986;26;2136;-66
2024/04/23 01:55:34;;;;;;;;;;;;;;;20.19;45.43;101656.19;2218933;26;2115;-67
2024/04/23 01:56:36;;;;;;;;;;;;;;;20.20;45.42;101656.94;2212648;26;2215;-67
2024/04/23 01:57:37;;;;;;;;;;;;;;;20.20;44.72;101662.69;2214953;26;2088;-67
2024/04/23 01:58:38;;;;;;;;;;;;;;;20.20;45.29;101662.69;2215083;26;2156;-67
2024/04/23 01:59:46;;;;;;;;;;;;;;;20.19;45.21;101667.69;2217840;26;2207;-67
2024/04/23 02:00:49;;;;;;;;;;;;;;;20.20;45.29;101666.31;2215720;26;5850;-67
2024/04/23 02:01:52;;;;;;;;;;;;;;;20.19;45.23;101661.19;2218706;26;2209;-67
2024/04/23 02:02:56;;;;;;;;;;;;;;;20.19;45.36;101658.31;2213854;26;2251;-67
2024/04/23 02:03:58;;;;;;;;;;;;;;;20.18;45.25;101660.44;2217597;26;2347;-66
2024/04/23 02:04:59;;;;;;;;;;;;;;;20.19;45.57;101661.19;2216622;26;2255;-67
2024/04/23 02:06:01;;;;;;;;;;;;;;;20.19;45.39;101655.44;2217036;26;2232;-67
2024/04/23 02:07:02;;;;;;;;;;;;;;;20.18;45.32;101659.66;2214956;26;2393;-67
2024/04/23 02:08:04;;;;;;;;;;;;;;;20.18;45.28;101659.66;2219143;26;2358;-66
2024/04/23 02:09:06;;;;;;;;;;;;;;;20.17;45.16;101653.19;2217585;26;2292;-66
2024/04/23 02:10:08;;;;;;;;;;;;;;;20.18;45.26;101653.94;2218947;26;2274;-67
2024/04/23 02:11:09;;;;;;;;;;;;;;;20.18;45.29;101653.94;2214294;26;2356;-67
2024/04/23 02:12:12;;;;;;;;;;;;;;;20.17;45.39;101658.94;2221132;26;2042;-67
2024/04/23 02:13:14;;;;;;;;;;;;;;;20.16;45.23;101656.69;2217170;26;2153;-66
2024/04/23 02:14:15;;;;;;;;;;;;;;;20.16;45.30;101650.94;2219389;26;2317;-67
2024/04/23 02:15:17;;;;;;;;;;;;;;;20.16;45.14;101659.56;2219637;26;2252;-67
2024/04/23 02:16:18;;;;;;;;;;;;;;;20.16;45.21;101656.69;2218786;26;2036;-67
2024/04/23 02:17:20;;;;;;;;;;;;;;;20.15;45.25;101655.19;2211694;26;2287;-67
2024/04/23 02:18:21;;;;;;;;;;;;;;;20.15;45.19;101655.19;2222255;26;2036;-67
2024/04/23 02:19:23;;;;;;;;;;;;;;;20.15;45.32;101655.94;2221199;26;1960;-67
2024/04/23 02:20:24;;;;;;;;;;;;;;;20.15;45.52;101660.94;2222735;26;1939;-67
2024/04/23 02:21:26;;;;;;;;;;;;;;;20.15;45.00;101658.06;2219868;26;2185;-67
2024/04/23 02:22:27;;;;;;;;;;;;;;;20.15;45.35;101655.19;2232879;26;2044;-66
2024/04/23 02:23:29;;;;;;;;;;;;;;;20.14;45.44;101650.81;2230447;26;2156;-67
2024/04/23 02:24:30;;;;;;;;;;;;;;;20.16;45.58;101650.94;2219674;26;2304;-66
2024/04/23 02:25:32;;;;;;;;;;;;;;;20.15;45.39;101649.44;2216093;26;2185;-67
2024/04/23 02:26:33;;;;;;;;;;;;;;;20.16;44.89;101656.69;2221120;26;2251;-66
2024/04/23 02:27:35;;;;;;;;;;;;;;;20.16;45.74;101645.94;2221662;26;2225;-67
2024/04/23 02:28:36;;;;;;;;;;;;;;;20.17;45.20;101652.44;2215566;26;2133;-66
2024/04/23 02:29:38;;;;;;;;;;;;;;;20.17;45.16;101647.44;2221205;26;2258;-66
2024/04/23 02:30:39;;;;;;;;;;;;;;;20.17;45.49;101644.56;2218450;26;6009;-66
2024/04/23 02:31:41;;;;;;;;;;;;;;;20.17;45.56;101643.81;2219689;26;2291;-67
2024/04/23 02:32:43;;;;;;;;;;;;;;;20.18;44.97;101645.28;2215860;26;2154;-67
2024/04/23 02:33:44;;;;;;;;;;;;;;;20.18;45.15;101648.16;2221891;26;2373;-66
2024/04/23 02:34:46;;;;;;;;;;;;;;;20.18;45.59;101651.81;2221615;26;2107;-67
2024/04/23 02:35:47;;;;;;;;;;;;;;;20.19;45.59;101649.69;2212315;26;2346;-67
2024/04/23 02:36:49;;;;;;;;;;;;;;;20.18;44.86;101648.94;2213403;26;2176;-67
2024/04/23 02:37:50;;;;;;;;;;;;;;;20.18;45.54;101643.19;2223958;26;2283;-67
2024/04/23 02:38:51;;;;;;;;;;;;;;;20.19;45.20;101635.31;2212259;26;2032;-66
2024/04/23 02:39:53;;;;;;;;;;;;;;;20.18;45.41;101636.66;2217888;26;2244;-67
2024/04/23 02:40:54;;;;;;;;;;;;;;;20.19;45.11;101643.94;2215522;26;2097;-67
2024/04/23 02:41:56;;;;;;;;;;;;;;;20.18;45.38;101639.53;2213314;26;2247;-66
2024/04/23 02:42:57;;;;;;;;;;;;;;;20.19;45.33;101646.81;2215541;26;2326;-66
2024/04/23 02:43:59;;;;;;;;;;;;;;;20.19;45.11;101643.94;2214350;26;2116;-67
2024/04/23 02:45:00;;;;;;;;;;;;;;;20.18;45.13;101648.16;2220286;26;2410;-66
2024/04/23 02:46:02;;;;;;;;;;;;;;;20.17;45.60;101635.94;2220145;26;2443;-67
2024/04/23 02:47:03;;;;;;;;;;;;;;;20.18;45.48;101640.31;2216061;26;2283;-67
2024/04/23 02:48:05;;;;;;;;;;;;;;;20.19;44.98;101638.19;2214299;26;2251;-67
2024/04/23 02:49:07;;;;;;;;;;;;;;;20.19;44.97;101632.44;2220315;26;2312;-67
2024/04/23 02:50:08;;;;;;;;;;;;;;;20.19;45.45;101638.19;2220144;26;2192;-67
2024/04/23 02:51:10;;;;;;;;;;;;;;;20.20;45.26;101639.66;2220365;26;2268;-66
2024/04/23 02:52:11;;;;;;;;;;;;;;;20.20;45.34;101633.91;2219300;26;2337;-67
2024/04/23 02:53:13;;;;;;;;;;;;;;;20.20;45.16;101628.94;2223244;26;2144;-67
2024/04/23 02:54:14;;;;;;;;;;;;;;;20.20;45.38;101634.69;2220502;26;2272;-66
2024/04/23 02:55:16;;;;;;;;;;;;;;;20.21;45.44;101635.44;2219267;26;2136;-67
2024/04/23 02:56:17;;;;;;;;;;;;;;;20.21;44.82;101641.19;2220587;26;2259;-66
2024/04/23 02:57:19;;;;;;;;;;;;;;;20.21;45.26;101638.31;2218129;26;2267;-67
2024/04/23 02:58:20;;;;;;;;;;;;;;;20.21;45.07;101636.19;2217567;26;2254;-67
2024/04/23 02:59:22;;;;;;;;;;;;;;;20.22;45.46;101631.16;2216335;26;2395;-66
2024/04/23 03:00:23;;;;;;;;;;;;;;;20.23;44.79;101632.69;2218602;26;8300;-66
2024/04/23 03:01:25;;;;;;;;;;;;;;;20.23;45.52;101632.69;2215425;26;2171;-67
2024/04/23 03:02:26;;;;;;;;;;;;;;;20.22;45.11;101634.03;2219401;26;2284;-67
2024/04/23 03:03:28;;;;;;;;;;;;;;;20.23;44.75;101633.41;2218445;26;2212;-67
2024/04/23 03:04:30;;;;;;;;;;;;;;;20.24;44.96;101629.16;2221946;26;2483;-66
2024/04/23 03:05:31;;;;;;;;;;;;;;;20.23;45.27;101627.66;2219180;26;2160;-67
2024/04/23 03:06:33;;;;;;;;;;;;;;;20.24;45.22;101629.16;2222793;26;2032;-68
2024/04/23 03:07:35;;;;;;;;;;;;;;;20.25;45.13;101624.16;2222342;26;1969;-66
2024/04/23 03:08:36;;;;;;;;;;;;;;;20.25;45.05;101624.16;2214429;26;2243;-66
2024/04/23 03:09:38;;;;;;;;;;;;;;;20.26;45.45;101628.53;2214826;26;2008;-67
2024/04/23 03:10:39;;;;;;;;;;;;;;;20.25;45.28;101621.28;2220970;26;2147;-67
2024/04/23 03:11:49;;;;;;;;;;;;;;;20.27;44.94;101627.16;2221181;26;2137;-67
2024/04/23 03:12:50;;;;;;;;;;;;;;;20.27;45.23;101632.91;2220929;26;2136;-67
2024/04/23 03:13:52;;;;;;;;;;;;;;;20.27;45.09;101627.16;2212774;26;2921;-67
2024/04/23 03:14:53;;;;;;;;;;;;;;;20.27;45.23;101621.38;2216605;26;2284;-67
2024/04/23 03:15:55;;;;;;;;;;;;;;;20.27;45.49;101621.38;2218382;26;2236;-66
2024/04/23 03:16:56;;;;;;;;;;;;;;;20.28;44.82;101625.78;2220240;26;2280;-67
2024/04/23 03:17:58;;;;;;;;;;;;;;;20.27;45.25;101621.38;2228403;26;2345;-66
2024/04/23 03:19:00;;;;;;;;;;;;;;;20.27;45.56;101618.50;2218956;26;2290;-66
2024/04/23 03:20:01;;;;;;;;;;;;;;;20.27;45.30;101621.38;2217611;26;2251;-66
2024/04/23 03:21:03;;;;;;;;;;;;;;;20.28;45.20;101623.66;2214878;26;2256;-67
2024/04/23 03:22:04;;;;;;;;;;;;;;;20.29;45.15;101624.38;2219063;26;2213;-66
2024/04/23 03:23:06;;;;;;;;;;;;;;;20.29;45.18;101624.38;2223424;26;2290;-67
2024/04/23 03:24:08;;;;;;;;;;;;;;;20.29;44.83;101619.41;2218029;26;2288;-67
2024/04/23 03:25:09;;;;;;;;;;;;;;;20.29;45.54;101618.63;2220246;26;2137;-67
2024/04/23 03:26:11;;;;;;;;;;;;;;;20.29;45.38;101618.63;2221851;26;2458;-67
2024/04/23 03:27:12;;;;;;;;;;;;;;;20.29;45.19;101624.38;2220000;26;2150;-66
2024/04/23 03:28:14;;;;;;;;;;;;;;;20.29;44.91;101624.38;2219673;26;2332;-66
2024/04/23 03:29:16;;;;;;;;;;;;;;;20.29;45.22;101625.16;2222105;26;2168;-67
2024/04/23 03:30:17;;;;;;;;;;;;;;;20.28;45.27;101626.53;2215964;26;5954;-67
2024/04/23 03:31:19;;;;;;;;;;;;;;;20.29;45.07;101624.38;2216884;26;2129;-66
2024/04/23 03:32:20;;;;;;;;;;;;;;;20.29;45.57;101625.16;2219002;26;2291;-67
2024/04/23 03:33:22;;;;;;;;;;;;;;;20.30;45.45;101625.91;2219940;26;2426;-67
2024/04/23 03:34:23;;;;;;;;;;;;;;;20.29;45.46;101624.38;2215809;26;2263;-67
2024/04/23 03:35:25;;;;;;;;;;;;;;;20.28;44.97;101628.66;2224272;26;2095;-66
2024/04/23 03:36:26;;;;;;;;;;;;;;;20.28;45.10;101622.91;2218778;26;2158;-67
2024/04/23 03:37:28;;;;;;;;;;;;;;;20.28;45.17;101628.66;2216505;26;2292;-67
2024/04/23 03:38:29;;;;;;;;;;;;;;;20.29;45.54;101624.38;2218831;26;2274;-67
2024/04/23 03:39:31;;;;;;;;;;;;;;;20.26;44.97;101625.66;2220177;26;2107;-66
2024/04/23 03:40:32;;;;;;;;;;;;;;;20.28;45.06;101625.78;2218210;26;2217;-67
2024/04/23 03:41:34;;;;;;;;;;;;;;;20.27;45.01;101622.16;2220538;26;2236;-67
2024/04/23 03:42:35;;;;;;;;;;;;;;;20.28;44.89;101620.03;2220645;26;2255;-67
2024/04/23 03:43:37;;;;;;;;;;;;;;;20.28;45.34;101623.66;2220653;26;2667;-66
2024/04/23 03:44:38;;;;;;;;;;;;;;;20.29;45.63;101624.38;2219906;26;2263;-67
2024/04/23 03:45:42;;;;;;;;;;;;;;;20.29;45.53;101619.41;2217641;26;2158;-67
2024/04/23 03:46:43;;;;;;;;;;;;;;;20.29;44.95;101624.38;2219804;26;2301;-67
2024/04/23 03:47:45;;;;;;;;;;;;;;;20.29;45.03;101618.63;2218898;26;2270;-67
2024/04/23 03:48:46;;;;;;;;;;;;;;;20.29;45.22;101618.63;2219565;26;2099;-67
2024/04/23 03:49:48;;;;;;;;;;;;;;;20.30;44.99;101620.16;2227169;26;2215;-67
2024/04/23 03:50:49;;;;;;;;;;;;;;;20.30;45.12;101614.41;2219329;26;2223;-67
2024/04/23 03:51:51;;;;;;;;;;;;;;;20.30;45.16;101625.91;2213054;26;2367;-67
2024/04/23 03:52:52;;;;;;;;;;;;;;;20.30;45.11;101614.41;2216510;26;2251;-66
2024/04/23 03:53:54;;;;;;;;;;;;;;;20.30;45.44;101615.13;2221551;26;2174;-67
2024/04/23 03:54:55;;;;;;;;;;;;;;;20.31;44.93;101610.13;2218592;26;2195;-67
2024/04/23 03:55:57;;;;;;;;;;;;;;;20.32;45.27;101605.88;2223967;26;2306;-67
2024/04/23 03:56:58;;;;;;;;;;;;;;;20.32;45.03;101617.41;2219950;26;2247;-66
2024/04/23 03:58:00;;;;;;;;;;;;;;;20.30;45.31;101606.50;2217240;26;2263;-67
2024/04/23 03:59:01;;;;;;;;;;;;;;;20.32;45.11;101605.88;2216814;26;2662;-67
2024/04/23 04:00:03;;;;;;;;;;;;;;;20.33;45.07;101603.75;2216732;26;6046;-66
2024/04/23 04:01:04;;;;;;;;;;;;;;;20.33;45.46;101607.38;2216968;26;2267;-66
2024/04/23 04:06:07;;;;;;;;;;;;;;;20.34;44.90;101606.00;2226098;26;2223;-67
2024/04/23 04:07:08;;;;;;;;;;;;;;;20.34;45.15;101608.88;2223714;26;2277;-66
2024/04/23 04:08:10;;;;;;;;;;;;;;;20.35;45.32;101615.38;2222055;26;2264;-66
2024/04/23 04:09:11;;;;;;;;;;;;;;;20.34;45.31;101617.50;2229906;26;2303;-66
2024/04/23 04:10:13;;;;;;;;;;;;;;;20.35;45.15;101621.13;2227528;26;2344;-66
2024/04/23 04:11:14;;;;;;;;;;;;;;;20.34;44.92;101623.28;2221265;26;2201;-66
2024/04/23 04:12:16;;;;;;;;;;;;;;;20.33;45.00;101618.88;2222245;26;2399;-66
2024/04/23 04:13:18;;;;;;;;;;;;;;;20.35;45.44;101615.38;2220649;26;2170;-67
2024/04/23 04:14:24;;;;;;;;;;;;;;;20.34;45.11;101614.66;2221638;26;2256;-69
2024/04/23 04:15:26;;;;;;;;;;;;;;;20.33;45.18;101613.13;2227486;26;2276;-72
2024/04/23 04:16:28;;;;;;;;;;;;;;;20.39;45.44;101610.63;2220371;26;2267;-66
2024/04/23 04:17:34;;;;;;;;;;;;;;;20.42;44.90;101608.59;2229573;26;2255;-67
2024/04/23 04:18:36;;;;;;;;;;;;;;;20.41;44.83;101607.88;2226922;26;2243;-67
2024/04/23 04:19:40;;;;;;;;;;;;;;;20.37;44.95;101610.50;2222713;26;2429;-67
2024/04/23 04:20:42;;;;;;;;;;;;;;;20.37;44.78;101607.63;2223685;26;1946;-68
2024/04/23 04:21:43;;;;;;;;;;;;;;;20.35;44.94;101604.63;2224007;26;1933;-68
2024/04/23 04:22:45;;;;;;;;;;;;;;;20.34;44.83;101606.00;2222390;26;2246;-67
2024/04/23 04:23:46;;;;;;;;;;;;;;;20.33;45.14;101613.13;2221640;26;2322;-67
2024/04/23 04:24:48;;;;;;;;;;;;;;;20.33;45.14;101609.50;2217718;26;2390;-69
2024/04/23 04:25:50;;;;;;;;;;;;;;;20.33;44.74;101613.13;2223651;26;2275;-68
2024/04/23 04:26:51;;;;;;;;;;;;;;;20.33;44.42;101610.25;2213553;26;2153;-67
2024/04/23 04:27:53;;;;;;;;;;;;;;;20.32;44.56;101611.66;2222658;26;2252;-70
2024/04/23 04:28:54;;;;;;;;;;;;;;;20.33;44.88;101613.13;2222894;26;2279;-68
2024/04/23 04:29:56;;;;;;;;;;;;;;;20.37;44.90;101610.50;2222209;26;2274;-69
2024/04/23 04:30:57;;;;;;;;;;;;;;;20.38;44.43;101605.47;2222342;26;6031;-69
2024/04/23 04:31:58;;;;;;;;;;;;;;;20.36;44.34;101608.97;2223805;26;2272;-68
2024/04/23 04:33:00;;;;;;;;;;;;;;;20.35;44.51;101610.38;2224447;26;2326;-69
2024/04/23 04:34:02;;;;;;;;;;;;;;;20.34;44.17;101614.66;2223677;26;2356;-71
2024/04/23 04:35:04;;;;;;;;;;;;;;;20.33;44.17;101609.50;2222230;26;2366;-67
2024/04/23 04:36:05;;;;;;;;;;;;;;;20.34;44.55;101614.66;2221480;26;2381;-66
2024/04/23 04:37:07;;;;;;;;;;;;;;;20.36;44.71;101614.00;2216925;26;2280;-67
2024/04/23 04:38:08;;;;;;;;;;;;;;;20.36;44.33;101616.88;2220679;26;2235;-66
2024/04/23 04:39:09;;;;;;;;;;;;;;;20.34;44.60;101619.63;2223523;26;2228;-67
2024/04/23 04:40:11;;;;;;;;;;;;;;;20.35;44.32;101621.88;2222841;26;2495;-67
2024/04/23 04:41:12;;;;;;;;;;;;;;;20.34;44.41;101614.66;2223722;26;2369;-67
2024/04/23 04:42:14;;;;;;;;;;;;;;;20.34;44.44;101614.66;2223042;26;2141;-66
2024/04/23 04:43:16;;;;;;;;;;;;;;;20.33;44.53;101613.13;2222197;26;2326;-66
2024/04/23 04:44:17;;;;;;;;;;;;;;;20.35;44.70;101615.38;2220457;26;2444;-66
2024/04/23 04:45:19;;;;;;;;;;;;;;;20.37;44.83;101619.13;2220345;26;2368;-67
2024/04/23 04:46:20;;;;;;;;;;;;;;;20.37;44.33;101622.00;2218230;26;2547;-61
2024/04/23 04:47:22;;;;;;;;;;;;;;;20.34;44.82;101620.41;2217291;26;2263;-66
2024/04/23 04:48:23;;;;;;;;;;;;;;;20.37;45.14;101613.38;2219938;26;2227;-66
2024/04/23 04:49:25;;;;;;;;;;;;;;;20.39;44.79;101622.13;2224122;26;2438;-62
2024/04/23 04:50:26;;;;;;;;;;;;;;;20.39;44.96;101619.25;2224007;26;2299;-64
2024/04/23 04:51:28;;;;;;;;;;;;;;;20.19;44.32;101618.06;2222448;26;2229;-66
2024/04/23 04:52:29;;;;;;;;;;;;;;;18.67;38.76;101616.50;2220511;26;2619;-66
2024/04/23 04:53:31;;;;;;;;;;;;;;;17.72;37.68;101620.91;2224415;26;2446;-67
2024/04/23 04:54:32;;;;;;;;;;;;;;;17.12;36.87;101622.50;2219081;26;2307;-66
2024/04/23 04:55:34;;;;;;;;;;;;;;;16.61;36.46;101621.63;2222121;26;2303;-66
2024/04/23 04:56:35;;;;;;;;;;;;;;;16.52;36.96;101617.44;2225384;26;2263;-63
2024/04/23 04:57:37;;;;;;;;;;;;;;;17.07;36.76;101623.56;2221841;26;2272;-63
2024/04/23 04:58:39;;;;;;;;;;;;;;;17.75;37.29;101628.28;2221922;26;2390;-63
2024/04/23 04:59:40;;;;;;;;;;;;;;;18.31;37.24;101627.81;2224287;26;2060;-63
2024/04/23 05:00:42;;;;;;;;;;;;;;;18.71;37.54;101623.25;2222624;26;5837;-63
2024/04/23 05:01:45;;;;;;;;;;;;;;;19.13;39.60;101632.41;2219279;26;2247;-65
2024/04/23 05:02:46;;;;;;;;;;;;;;;19.36;39.52;101623.09;2218507;26;2543;-64
2024/04/23 05:03:48;;;;;;;;;;;;;;;19.48;39.00;101629.56;2218931;26;2244;-63
2024/04/23 05:04:50;;;;;;;;;;;;;;;19.56;39.43;101630.09;2221113;26;2284;-64
2024/04/23 05:05:51;;;;;;;;;;;;;;;19.63;39.91;101626.22;2216685;26;2333;-63
2024/04/23 05:06:53;;;;;;;;;;;;;;;19.74;39.99;101629.72;2224122;26;2314;-63
2024/04/23 05:07:54;;;;;;;;;;;;;;;19.58;39.57;101624.44;2220502;26;2415;-67
2024/04/23 05:08:56;;;;;;;;;;;;;;;18.00;37.38;101628.63;2221127;26;2322;-71
2024/04/23 05:09:57;;;;;;;;;;;;;;;16.93;36.88;101646.19;2219683;26;2272;-70
2024/04/23 05:10:59;;;;;;;;;;;;;;;16.29;36.81;101640.00;2219384;26;2450;-69
2024/04/23 05:12:01;;;;;;;;;;;;;;;16.09;37.00;101633.47;2222021;26;2462;-71
2024/04/23 05:13:03;;;;;;;;;;;;;;;15.97;36.84;101633.31;2220139;26;2414;-69
2024/04/23 05:14:04;;;;;;;;;;;;;;;16.01;36.67;101638.56;2212756;26;2871;-71
2024/04/23 05:15:06;;;;;;;;;;;;;;;15.93;36.83;101632.25;2219532;26;2259;-65
2024/04/23 05:16:07;;;;;;;;;;;;;;;16.31;36.35;101637.28;2222925;26;2238;-65
2024/04/23 05:17:09;;;;;;;;;;;;;;;16.84;36.40;101631.91;2220383;26;2359;-63
2024/04/23 05:18:10;;;;;;;;;;;;;;;17.44;36.71;101636.88;2221875;26;2196;-65
2024/04/23 05:19:12;;;;;;;;;;;;;;;17.92;36.31;101638.78;2219621;26;2241;-66
2024/04/23 05:20:14;;;;;;;;;;;;;;;17.77;35.61;101634.16;2221024;26;2429;-65
2024/04/23 05:21:16;;;;;;;;;;;;;;;17.63;35.84;101638.91;2221394;26;2179;-69
2024/04/23 05:22:17;;;;;;;;;;;;;;;17.74;35.70;101641.13;2220713;26;2271;-69
2024/04/23 05:23:19;;;;;;;;;;;;;;;17.38;35.68;101640.03;2220282;26;2220;-70
2024/04/23 05:24:20;;;;;;;;;;;;;;;17.31;35.50;101640.97;2216832;26;2185;-63
2024/04/23 05:25:22;;;;;;;;;;;;;;;17.39;35.57;101638.69;2218285;26;2311;-64
2024/04/23 05:26:26;;;;;;;;;;;;;;;17.61;35.54;101644.47;2220551;26;2588;-65